Time;durP1;ratioP1;P1;durP2;ratioP2;P2;SDS_P1;SDS_P2;PMS_P1;PMS_P2;Temp;Humidity;BMP_temperature;BMP_pressure;BME280_temperature;BME280_humidity;BME280_pressure;Samples;Min_cycle;Max_cycle;Signal;HPM_P1;HPM_P2
2021/06/03 00:00:07;;;;;;;13.13;12.43;;;23.60;55.00;;;;;;3624552;39;20482;-65
2021/06/03 00:02:33;;;;;;;13.37;12.67;;;23.60;55.10;;;;;;3624377;39;20935;-65
2021/06/03 00:05:00;;;;;;;14.73;13.90;;;23.60;55.10;;;;;;3623631;39;20494;-65
2021/06/03 00:07:28;;;;;;;14.03;13.33;;;23.60;55.10;;;;;;3624917;39;20911;-65
2021/06/03 00:09:55;;;;;;;14.13;13.43;;;23.60;55.10;;;;;;3623296;39;20964;-65
2021/06/03 00:12:21;;;;;;;14.63;13.83;;;23.60;55.10;;;;;;3623062;39;20490;-65
2021/06/03 00:14:48;;;;;;;15.20;14.33;;;23.60;55.10;;;;;;3623010;39;20479;-65
2021/06/03 00:17:15;;;;;;;14.47;13.63;;;23.60;55.20;;;;;;3624326;39;20494;-65
2021/06/03 00:19:41;;;;;;;14.60;13.80;;;23.60;55.20;;;;;;3623553;39;20483;-65
2021/06/03 00:22:08;;;;;;;14.30;13.30;;;23.60;55.20;;;;;;3623453;39;20487;-65
2021/06/03 00:24:36;;;;;;;14.10;13.20;;;23.60;55.20;;;;;;3623849;39;20501;-65
2021/06/03 00:27:03;;;;;;;14.80;14.00;;;23.60;55.30;;;;;;3623938;39;20483;-65
2021/06/03 00:29:30;;;;;;;14.63;13.73;;;23.60;55.30;;;;;;3623789;39;20477;-65
2021/06/03 00:31:56;;;;;;;14.30;13.50;;;23.60;55.30;;;;;;3623588;39;20715;-65
2021/06/03 00:34:32;;;;;;;14.80;13.90;;;23.60;55.30;;;;;;3622497;39;20590;-65
2021/06/03 00:37:04;;;;;;;14.87;13.97;;;23.60;55.30;;;;;;3613830;39;20495;-65
2021/06/03 00:39:31;;;;;;;14.83;13.93;;;23.60;55.30;;;;;;3623811;39;20530;-65
2021/06/03 00:41:59;;;;;;;15.07;14.27;;;23.60;55.30;;;;;;3622905;39;20482;-65
2021/06/03 00:44:25;;;;;;;14.63;13.53;;;23.60;55.40;;;;;;3622809;39;20478;-65
2021/06/03 00:46:52;;;;;;;14.00;13.20;;;23.60;55.40;;;;;;3622996;39;20550;-65
2021/06/03 00:49:18;;;;;;;15.30;14.50;;;23.60;55.40;;;;;;3622720;39;20512;-65
2021/06/03 00:51:45;;;;;;;15.57;14.23;;;23.60;55.40;;;;;;3623895;39;20509;-65
2021/06/03 00:54:14;;;;;;;14.40;13.60;;;23.60;55.40;;;;;;3614696;39;20490;-65
2021/06/03 00:56:41;;;;;;;14.53;13.73;;;23.60;55.50;;;;;;3623627;39;20551;-65
2021/06/03 00:59:12;;;;;;;14.77;13.80;;;23.50;55.40;;;;;;3614779;39;20462;-65
2021/06/03 01:01:39;;;;;;;15.17;14.27;;;23.60;55.60;;;;;;3623997;39;20491;-65
2021/06/03 01:04:07;;;;;;;15.00;14.20;;;23.50;55.40;;;;;;3623761;39;20573;-65
2021/06/03 01:06:36;;;;;;;15.27;14.37;;;23.60;55.50;;;;;;3614989;39;20463;-65
2021/06/03 01:09:07;;;;;;;15.13;14.13;;;23.50;55.50;;;;;;3615274;39;20559;-65
2021/06/03 01:11:39;;;;;;;15.30;14.30;;;23.50;55.50;;;;;;3624963;39;20485;-65
2021/06/03 01:14:10;;;;;;;14.90;14.10;;;23.50;55.50;;;;;;3625150;39;20541;-65
2021/06/03 01:16:39;;;;;;;14.80;13.50;;;23.50;55.60;;;;;;3615555;39;20490;-65
2021/06/03 01:19:13;;;;;;;13.97;13.27;;;23.50;55.60;;;;;;3624766;39;20485;-65
2021/06/03 01:21:46;;;;;;;14.63;13.80;;;23.50;55.60;;;;;;3624036;39;20571;-65
2021/06/03 01:24:26;;;;;;;14.83;13.93;;;23.50;55.70;;;;;;3614458;39;20471;-65
2021/06/03 01:26:57;;;;;;;14.07;13.30;;;23.50;55.70;;;;;;3624668;39;20662;-65
2021/06/03 01:29:27;;;;;;;14.33;13.53;;;23.50;55.70;;;;;;3625040;39;20522;-65
2021/06/03 01:31:55;;;;;;;13.93;13.23;;;23.50;55.70;;;;;;3625742;39;20475;-65
2021/06/03 01:34:26;;;;;;;14.40;13.50;;;23.50;55.70;;;;;;3625746;39;21035;-65
2021/06/03 01:37:01;;;;;;;14.20;13.37;;;23.50;55.70;;;;;;3616287;39;20783;-65
2021/06/03 01:39:31;;;;;;;14.60;13.80;;;23.50;55.80;;;;;;3615497;39;20490;-65
2021/06/03 01:41:59;;;;;;;14.20;13.40;;;23.50;55.90;;;;;;3624785;39;20756;-65
2021/06/03 01:44:26;;;;;;;14.03;13.33;;;23.50;55.90;;;;;;3625259;39;20482;-65
2021/06/03 01:46:55;;;;;;;13.97;13.27;;;23.50;55.90;;;;;;3615379;39;21251;-65
2021/06/03 01:49:23;;;;;;;15.07;14.17;;;23.50;55.90;;;;;;3624653;39;20467;-65
2021/06/03 01:51:51;;;;;;;14.23;13.43;;;23.50;55.90;;;;;;3615366;39;20486;-65
2021/06/03 01:54:19;;;;;;;15.97;14.87;;;23.50;55.90;;;;;;3624723;39;20485;-65
2021/06/03 01:56:48;;;;;;;14.37;13.47;;;23.50;56.00;;;;;;3624867;39;20747;-65
2021/06/03 01:59:20;;;;;;;15.53;14.43;;;23.50;56.00;;;;;;3606978;39;20474;-65
2021/06/03 02:01:47;;;;;;;14.70;13.70;;;23.50;56.00;;;;;;3624040;39;20534;-65
2021/06/03 02:04:14;;;;;;;13.70;13.00;;;23.50;56.00;;;;;;3614909;39;20471;-65
2021/06/03 02:06:41;;;;;;;14.30;13.50;;;23.50;56.00;;;;;;3615954;39;21054;-65
2021/06/03 02:09:10;;;;;;;13.80;12.90;;;23.40;56.00;;;;;;3623933;39;20478;-65
2021/06/03 02:11:38;;;;;;;14.70;13.90;;;23.40;56.00;;;;;;3624183;39;20471;-65
2021/06/03 02:14:09;;;;;;;13.83;13.03;;;23.40;56.00;;;;;;3615228;39;20575;-65
2021/06/03 02:16:48;;;;;;;15.70;14.80;;;23.40;56.00;;;;;;3624587;39;20494;-65
2021/06/03 02:19:20;;;;;;;14.83;13.97;;;23.40;56.00;;;;;;3624444;39;20489;-65
2021/06/03 02:21:53;;;;;;;15.50;14.67;;;23.50;56.20;;;;;;3625378;39;20579;-65
2021/06/03 02:24:22;;;;;;;14.07;13.30;;;23.40;56.10;;;;;;3615521;39;20470;-65
2021/06/03 02:26:51;;;;;;;14.23;13.40;;;23.40;56.10;;;;;;3614890;39;20498;-65
2021/06/03 02:29:19;;;;;;;15.17;14.23;;;23.40;56.10;;;;;;3624360;39;20471;-65
2021/06/03 02:32:00;;;;;;;14.77;14.07;;;23.40;56.10;;;;;;3624385;39;20534;-65
2021/06/03 02:34:35;;;;;;;14.40;13.60;;;23.40;56.10;;;;;;3624309;39;20529;-65
2021/06/03 02:37:08;;;;;;;16.03;15.07;;;23.40;56.20;;;;;;3614786;39;20529;-65
2021/06/03 02:39:35;;;;;;;14.80;14.00;;;23.40;56.10;;;;;;3624431;39;20483;-65
2021/06/03 02:42:05;;;;;;;15.70;14.70;;;23.40;56.10;;;;;;3624196;39;21050;-65
2021/06/03 02:44:34;;;;;;;14.90;13.80;;;23.40;56.10;;;;;;3624533;39;20833;-65
2021/06/03 02:47:04;;;;;;;15.03;14.13;;;23.40;56.20;;;;;;3624818;39;20692;-65
2021/06/03 02:49:33;;;;;;;14.57;13.70;;;23.40;56.20;;;;;;3625282;39;20501;-65
2021/06/03 02:52:01;;;;;;;15.20;14.20;;;23.40;56.20;;;;;;3606970;39;20485;-65
2021/06/03 02:54:30;;;;;;;14.67;13.80;;;23.40;56.20;;;;;;3615259;39;20705;-65
2021/06/03 02:56:58;;;;;;;14.07;13.27;;;23.40;56.30;;;;;;3614961;39;20486;-65
2021/06/03 02:59:27;;;;;;;16.70;15.70;;;23.40;56.30;;;;;;3614401;39;20482;-65
2021/06/03 03:01:56;;;;;;;14.60;13.80;;;23.30;56.30;;;;;;3613852;39;20503;-65
2021/06/03 03:04:23;;;;;;;14.57;13.67;;;23.30;56.40;;;;;;3614540;39;20563;-65
2021/06/03 03:06:50;;;;;;;15.70;14.80;;;23.30;56.40;;;;;;3624226;39;20526;-65
2021/06/03 03:09:19;;;;;;;14.17;13.40;;;23.30;56.30;;;;;;3614665;39;20490;-65
2021/06/03 03:11:48;;;;;;;15.20;14.40;;;23.40;56.40;;;;;;3624136;39;20490;-65
2021/06/03 03:14:16;;;;;;;14.33;13.63;;;23.40;56.30;;;;;;3614933;39;20482;-65
2021/06/03 03:16:42;;;;;;;14.73;14.03;;;23.40;56.40;;;;;;3615221;39;20486;-65
2021/06/03 03:19:12;;;;;;;15.47;14.67;;;23.40;56.40;;;;;;3625042;39;20475;-65
2021/06/03 03:21:39;;;;;;;14.77;13.87;;;23.40;56.40;;;;;;3624618;39;20486;-65
2021/06/03 03:24:07;;;;;;;15.30;14.40;;;23.30;56.40;;;;;;3624012;39;20474;-65
2021/06/03 03:26:34;;;;;;;15.60;14.80;;;23.30;56.40;;;;;;3614924;39;20471;-65
2021/06/03 03:29:01;;;;;;;14.23;13.47;;;23.30;56.40;;;;;;3615169;39;20466;-65
2021/06/03 03:31:28;;;;;;;14.17;13.47;;;23.30;56.40;;;;;;3624114;39;20470;-65
2021/06/03 03:34:02;;;;;;;13.93;13.20;;;23.30;56.40;;;;;;3624310;39;20485;-65
2021/06/03 03:36:33;;;;;;;14.90;14.00;;;23.30;56.40;;;;;;3614069;39;20567;-65
2021/06/03 03:39:00;;;;;;;14.87;14.07;;;23.30;56.40;;;;;;3623790;39;20571;-65
2021/06/03 03:41:27;;;;;;;14.37;13.57;;;23.30;56.50;;;;;;3614274;39;20479;-65
2021/06/03 03:43:54;;;;;;;15.30;14.40;;;23.30;56.40;;;;;;3623730;39;21254;-65
2021/06/03 03:46:21;;;;;;;15.30;14.50;;;23.30;56.50;;;;;;3623753;39;20483;-65
2021/06/03 03:48:49;;;;;;;15.13;14.33;;;23.30;56.40;;;;;;3615256;39;20490;-65
2021/06/03 03:51:16;;;;;;;15.13;14.33;;;23.30;56.50;;;;;;3624851;39;20578;-65
2021/06/03 03:53:45;;;;;;;15.03;14.23;;;23.30;57.00;;;;;;3623713;39;20478;-65
2021/06/03 03:56:19;;;;;;;14.90;14.10;;;23.30;56.50;;;;;;3624191;39;20474;-65
2021/06/03 03:58:48;;;;;;;14.73;14.03;;;23.30;56.60;;;;;;3614223;39;20504;-65
2021/06/03 04:01:16;;;;;;;15.47;14.67;;;23.30;56.50;;;;;;3613138;39;20471;-65
2021/06/03 04:03:43;;;;;;;15.63;14.63;;;23.30;56.50;;;;;;3623548;39;20494;-65
2021/06/03 04:06:12;;;;;;;15.07;14.27;;;23.30;56.60;;;;;;3624367;39;20888;-65
2021/06/03 04:08:40;;;;;;;15.17;13.93;;;23.30;56.60;;;;;;3623695;39;20873;-65
2021/06/03 04:11:09;;;;;;;15.00;14.27;;;23.30;56.60;;;;;;3623222;39;21165;-65
2021/06/03 04:13:39;;;;;;;14.30;13.50;;;23.30;56.70;;;;;;3623932;39;20494;-65
2021/06/03 04:16:08;;;;;;;14.53;13.73;;;23.30;56.60;;;;;;3623468;39;20505;-65
2021/06/03 04:18:36;;;;;;;14.07;13.33;;;23.30;56.60;;;;;;3623844;39;20999;-65
2021/06/03 04:21:04;;;;;;;14.73;13.87;;;23.30;56.70;;;;;;3623816;39;20491;-65
2021/06/03 04:23:31;;;;;;;13.80;13.10;;;23.30;56.70;;;;;;3622050;39;20474;-65
2021/06/03 04:25:58;;;;;;;14.13;13.53;;;23.30;56.90;;;;;;3622812;39;20490;-65
2021/06/03 04:28:26;;;;;;;14.83;14.03;;;23.30;56.80;;;;;;3621388;39;20482;-65
2021/06/03 04:30:54;;;;;;;14.20;13.50;;;23.30;56.80;;;;;;3622701;39;20489;-65
2021/06/03 04:33:22;;;;;;;14.60;13.60;;;23.30;56.80;;;;;;3624151;39;20567;-65
2021/06/03 04:35:49;;;;;;;15.00;14.17;;;23.40;56.80;;;;;;3625626;39;21224;-65
2021/06/03 04:38:16;;;;;;;15.07;14.17;;;23.30;56.70;;;;;;3623522;39;21187;-65
2021/06/03 04:40:43;;;;;;;15.83;14.43;;;23.30;56.70;;;;;;3624384;39;20482;-65
2021/06/03 04:43:10;;;;;;;14.50;13.70;;;23.40;56.80;;;;;;3624942;39;20478;-65
2021/06/03 04:45:38;;;;;;;14.37;13.57;;;23.40;56.80;;;;;;3624651;39;20509;-65
2021/06/03 04:48:07;;;;;;;14.30;13.63;;;23.40;56.80;;;;;;3624357;39;20475;-65
2021/06/03 04:50:35;;;;;;;13.47;12.80;;;23.40;56.80;;;;;;3615134;39;20484;-65
2021/06/03 04:53:02;;;;;;;14.83;14.03;;;23.40;56.80;;;;;;3625187;39;20811;-65
2021/06/03 04:55:30;;;;;;;14.37;13.53;;;23.40;56.80;;;;;;3614476;39;20497;-65
2021/06/03 04:57:57;;;;;;;14.70;14.00;;;23.40;56.90;;;;;;3625394;39;20502;-65
2021/06/03 05:00:27;;;;;;;14.33;13.53;;;23.40;56.90;;;;;;3625279;39;20493;-65
2021/06/03 05:02:55;;;;;;;13.40;12.70;;;23.40;56.90;;;;;;3624672;39;20498;-65
2021/06/03 05:05:22;;;;;;;14.43;13.33;;;23.40;56.80;;;;;;3625207;39;21295;-65
2021/06/03 05:07:50;;;;;;;13.90;13.10;;;23.40;56.80;;;;;;3623990;39;20570;-65
2021/06/03 05:10:18;;;;;;;14.40;13.70;;;23.40;56.80;;;;;;3623799;39;20474;-65
2021/06/03 05:12:46;;;;;;;15.07;14.17;;;23.40;56.80;;;;;;3623550;39;20517;-65
2021/06/03 05:15:17;;;;;;;14.17;13.37;;;23.40;56.80;;;;;;3616032;39;20478;-65
2021/06/03 05:17:44;;;;;;;14.97;14.10;;;23.50;56.90;;;;;;3624482;39;20640;-65
2021/06/03 05:20:14;;;;;;;14.23;13.53;;;23.50;57.00;;;;;;3624929;39;20554;-65
2021/06/03 05:22:42;;;;;;;14.07;13.27;;;23.50;57.00;;;;;;3624003;39;20484;-65
2021/06/03 05:25:11;;;;;;;14.93;14.03;;;23.50;57.00;;;;;;3624364;39;20875;-65
2021/06/03 05:27:38;;;;;;;15.20;14.20;;;23.50;57.00;;;;;;3624247;39;20479;-65
2021/06/03 05:30:08;;;;;;;14.40;13.70;;;23.50;57.00;;;;;;3624646;39;20498;-65
2021/06/03 05:32:36;;;;;;;13.90;13.20;;;23.50;57.00;;;;;;3624107;39;20478;-65
2021/06/03 05:35:03;;;;;;;13.73;12.93;;;23.50;57.00;;;;;;3624834;39;20482;-65
2021/06/03 05:37:31;;;;;;;14.60;13.80;;;23.50;57.00;;;;;;3624371;39;20554;-65
2021/06/03 05:39:58;;;;;;;15.33;14.43;;;23.50;57.00;;;;;;3623635;39;20491;-65
2021/06/03 05:42:24;;;;;;;14.17;13.37;;;23.50;57.00;;;;;;3623646;39;20486;-65
2021/06/03 05:44:51;;;;;;;13.53;12.83;;;23.50;57.00;;;;;;3623148;39;20869;-65
2021/06/03 05:47:17;;;;;;;13.43;12.83;;;23.50;57.00;;;;;;3624324;39;20582;-65
2021/06/03 05:49:44;;;;;;;14.60;13.77;;;23.50;57.10;;;;;;3624235;39;20479;-65
2021/06/03 05:52:11;;;;;;;14.07;13.23;;;23.50;57.10;;;;;;3612419;39;20482;-65
2021/06/03 05:54:39;;;;;;;14.60;13.80;;;23.50;57.10;;;;;;3622486;39;20502;-65
2021/06/03 05:57:06;;;;;;;15.43;14.57;;;23.50;57.10;;;;;;3624199;39;20491;-65
2021/06/03 05:59:33;;;;;;;15.40;14.43;;;23.50;57.10;;;;;;3624120;39;20489;-65
2021/06/03 06:02:03;;;;;;;14.20;13.40;;;23.50;57.10;;;;;;3622868;39;20510;-65
2021/06/03 06:07:15;;;;;;;14.00;13.30;;;23.50;57.20;;;;;;3613892;39;20502;-65
2021/06/03 06:09:43;;;;;;;14.33;13.40;;;23.50;57.20;;;;;;3622512;39;20478;-65
2021/06/03 06:12:10;;;;;;;14.80;14.00;;;23.50;57.30;;;;;;3623365;39;20470;-65
2021/06/03 06:14:36;;;;;;;14.97;14.20;;;23.50;57.30;;;;;;3623680;39;20474;-65
2021/06/03 06:17:03;;;;;;;15.23;14.43;;;23.50;57.30;;;;;;3623691;39;20590;-65
2021/06/03 06:19:31;;;;;;;14.43;13.73;;;23.50;57.40;;;;;;3623364;39;20489;-65
2021/06/03 06:21:58;;;;;;;15.30;14.60;;;23.50;57.40;;;;;;3623748;39;20734;-65
2021/06/03 06:24:24;;;;;;;15.00;14.20;;;23.50;57.40;;;;;;3623084;39;20490;-65
2021/06/03 06:26:52;;;;;;;14.27;13.57;;;23.50;57.40;;;;;;3624140;39;20975;-65
2021/06/03 06:29:19;;;;;;;14.97;14.17;;;23.50;57.50;;;;;;3623897;39;20955;-65
2021/06/03 06:31:45;;;;;;;15.40;14.50;;;23.50;57.50;;;;;;3623344;39;20486;-65
2021/06/03 06:34:12;;;;;;;14.47;13.67;;;23.50;57.60;;;;;;3623435;39;20475;-65
2021/06/03 06:36:38;;;;;;;14.60;13.80;;;23.50;57.60;;;;;;3623929;39;20486;-64
2021/06/03 06:39:06;;;;;;;14.80;13.87;;;23.50;57.60;;;;;;3622677;39;20541;-65
2021/06/03 06:41:32;;;;;;;14.53;13.80;;;23.50;57.70;;;;;;3622884;39;20479;-65
2021/06/03 06:44:00;;;;;;;14.67;13.77;;;23.50;57.70;;;;;;3621501;39;20494;-65
2021/06/03 06:46:26;;;;;;;14.80;14.00;;;23.50;57.80;;;;;;3623218;39;20473;-65
2021/06/03 06:48:54;;;;;;;13.40;12.60;;;23.50;57.80;;;;;;3623529;39;20571;-65
2021/06/03 06:51:21;;;;;;;13.73;13.00;;;23.50;58.10;;;;;;3623631;39;20474;-65
2021/06/03 06:53:47;;;;;;;13.43;12.37;;;23.50;58.40;;;;;;3623385;39;20547;-65
2021/06/03 06:56:14;;;;;;;13.70;12.90;;;23.50;58.60;;;;;;3623169;39;20477;-65
2021/06/03 06:58:40;;;;;;;13.47;12.67;;;23.50;58.60;;;;;;3623301;39;20475;-65
2021/06/03 07:01:08;;;;;;;12.33;11.70;;;23.50;58.90;;;;;;3622799;39;20482;-65
2021/06/03 07:03:35;;;;;;;12.67;11.73;;;23.50;58.90;;;;;;3622151;39;21121;-65
2021/06/03 07:06:01;;;;;;;11.93;11.33;;;23.50;59.10;;;;;;3622020;39;20486;-65
2021/06/03 07:08:29;;;;;;;12.37;11.77;;;23.50;59.10;;;;;;3622795;39;20483;-65
2021/06/03 07:10:55;;;;;;;12.67;12.07;;;23.50;59.30;;;;;;3622677;39;20474;-65
2021/06/03 07:13:22;;;;;;;12.70;12.10;;;23.50;60.00;;;;;;3623873;39;20482;-64
2021/06/03 07:15:49;;;;;;;13.25;12.45;;;23.50;60.00;;;;;;3622909;39;20474;-65
2021/06/03 07:18:17;;;;;;;12.80;12.00;;;23.50;60.20;;;;;;3616174;39;20312;-65
2021/06/03 07:20:43;;;;;;;12.10;11.60;;;23.50;60.20;;;;;;3623231;39;21143;-64
2021/06/03 07:23:10;;;;;;;13.90;13.20;;;23.50;60.80;;;;;;3617729;39;20488;-65
2021/06/03 07:25:40;;;;;;;12.90;12.10;;;23.60;60.90;;;;;;3616733;39;20487;-65
2021/06/03 07:28:08;;;;;;;13.30;12.53;;;23.60;60.90;;;;;;3611283;39;20494;-65
2021/06/03 07:30:39;;;;;;;12.03;11.43;;;23.60;61.30;;;;;;3611525;39;20471;-65
2021/06/03 07:33:07;;;;;;;12.87;12.10;;;23.60;62.20;;;;;;3613937;39;20513;-65
2021/06/03 07:35:36;;;;;;;12.93;12.33;;;23.60;62.50;;;;;;3623152;39;20806;-65
2021/06/03 07:38:04;;;;;;;13.37;12.57;;;23.60;62.50;;;;;;3613059;39;20499;-65
2021/06/03 07:40:34;;;;;;;12.30;11.60;;;23.60;63.10;;;;;;3622904;39;20470;-65
2021/06/03 07:43:04;;;;;;;11.70;11.00;;;23.60;63.20;;;;;;3622840;39;20991;-65
2021/06/03 07:45:33;;;;;;;12.67;12.03;;;23.60;63.50;;;;;;3611247;39;20526;-65
2021/06/03 07:47:59;;;;;;;12.23;11.43;;;23.70;63.90;;;;;;3622426;39;20463;-64
2021/06/03 07:50:28;;;;;;;12.13;11.53;;;23.70;63.90;;;;;;3621456;39;20479;-65
2021/06/03 07:52:57;;;;;;;11.87;11.37;;;23.70;64.40;;;;;;3620181;39;20917;-65
2021/06/03 07:55:24;;;;;;;12.30;11.27;;;23.70;64.30;;;;;;3609145;39;20466;-65
2021/06/03 07:57:55;;;;;;;12.50;11.87;;;23.70;64.20;;;;;;3621407;39;20474;-65
2021/06/03 08:00:23;;;;;;;12.50;11.70;;;23.70;64.30;;;;;;3621202;39;20900;-65
2021/06/03 08:02:52;;;;;;;12.50;11.90;;;23.70;65.10;;;;;;3611683;39;20814;-65
2021/06/03 08:05:22;;;;;;;12.37;11.60;;;23.70;64.50;;;;;;3620783;39;20474;-65
2021/06/03 08:07:51;;;;;;;11.90;11.40;;;23.70;64.50;;;;;;3620706;39;20576;-65
2021/06/03 08:10:22;;;;;;;11.63;11.03;;;23.70;64.70;;;;;;3620924;39;20481;-65
2021/06/03 08:12:52;;;;;;;12.40;11.80;;;23.70;64.80;;;;;;3621445;39;20535;-65
2021/06/03 08:15:26;;;;;;;12.20;11.60;;;23.70;64.90;;;;;;3618155;39;20534;-64
2021/06/03 08:17:55;;;;;;;13.47;12.43;;;23.70;64.90;;;;;;3611526;39;20527;-65
2021/06/03 08:20:26;;;;;;;12.80;12.10;;;23.70;64.70;;;;;;3601250;39;20513;-65
2021/06/03 08:22:56;;;;;;;12.37;11.77;;;23.70;64.60;;;;;;3609276;39;20639;-65
2021/06/03 08:25:24;;;;;;;12.80;12.13;;;23.70;64.40;;;;;;3609862;39;20495;-65
2021/06/03 08:27:53;;;;;;;12.90;12.27;;;23.70;64.40;;;;;;3619688;39;21413;-65
2021/06/03 08:30:22;;;;;;;12.40;11.90;;;23.70;64.20;;;;;;3620023;39;20482;-65
2021/06/03 08:32:51;;;;;;;14.20;13.03;;;23.70;64.90;;;;;;3613513;39;20475;-65
2021/06/03 08:35:23;;;;;;;12.80;12.03;;;23.70;64.00;;;;;;3621030;39;20538;-65
2021/06/03 08:37:52;;;;;;;13.83;12.93;;;23.70;64.00;;;;;;3611892;39;20505;-65
2021/06/03 08:40:23;;;;;;;13.27;12.67;;;23.70;63.90;;;;;;3618087;39;20497;-65
2021/06/03 08:43:01;;;;;;;14.77;13.97;;;23.70;63.80;;;;;;3611292;39;21131;-64
2021/06/03 08:45:38;;;;;;;13.93;13.13;;;23.70;63.70;;;;;;3615401;39;21094;-64
2021/06/03 08:48:05;;;;;;;13.33;12.63;;;23.70;63.60;;;;;;3619618;39;20474;-65
2021/06/03 08:50:40;;;;;;;14.10;13.20;;;23.70;63.60;;;;;;3619609;39;20552;-64
2021/06/03 08:53:08;;;;;;;14.13;13.33;;;23.70;63.50;;;;;;3621085;39;20912;-64
2021/06/03 08:58:24;;;;;;;14.67;13.77;;;23.70;63.60;;;;;;3618092;39;20911;-64
2021/06/03 09:00:51;;;;;;;13.80;13.10;;;23.70;63.50;;;;;;3618148;39;20478;-64
2021/06/03 09:03:18;;;;;;;14.50;13.60;;;23.70;63.50;;;;;;3620580;39;20455;-64
2021/06/03 09:05:46;;;;;;;14.10;13.40;;;23.70;63.60;;;;;;3619951;39;20594;-64
2021/06/03 09:08:20;;;;;;;14.20;13.40;;;23.70;63.60;;;;;;3619366;39;20498;-64
2021/06/03 09:10:49;;;;;;;14.73;13.90;;;23.70;63.50;;;;;;3619548;39;21142;-64
2021/06/03 09:13:19;;;;;;;15.07;14.17;;;23.70;63.50;;;;;;3618594;39;20490;-64
2021/06/03 09:15:50;;;;;;;15.53;14.40;;;23.80;63.60;;;;;;3618375;39;20740;-64
2021/06/03 09:18:18;;;;;;;14.33;13.40;;;23.80;63.60;;;;;;3619668;39;20508;-64
2021/06/03 09:20:46;;;;;;;15.13;14.00;;;23.80;63.50;;;;;;3621147;39;20481;-64
2021/06/03 09:23:28;;;;;;;14.67;13.63;;;23.80;63.50;;;;;;3619912;39;20572;-64
2021/06/03 09:25:56;;;;;;;14.03;13.33;;;23.80;63.50;;;;;;3612078;39;20475;-64
2021/06/03 09:28:26;;;;;;;15.80;14.40;;;23.80;63.40;;;;;;3621647;39;20486;-64
2021/06/03 09:31:07;;;;;;;15.93;15.03;;;23.80;63.40;;;;;;3620203;39;20494;-64
2021/06/03 09:33:54;;;;;;;15.00;14.00;;;23.80;63.50;;;;;;3620946;39;20519;-64
2021/06/03 09:36:28;;;;;;;15.07;14.37;;;23.80;63.40;;;;;;3620496;39;20501;-64
2021/06/03 09:39:00;;;;;;;16.33;15.43;;;23.80;63.40;;;;;;3620537;39;20479;-64
2021/06/03 09:41:32;;;;;;;15.47;14.33;;;23.80;63.40;;;;;;3619917;39;20478;-64
2021/06/03 09:44:12;;;;;;;15.40;14.47;;;23.80;63.40;;;;;;3622115;39;20955;-64
2021/06/03 09:46:43;;;;;;;15.43;14.43;;;23.80;63.40;;;;;;3620978;39;20582;-64
2021/06/03 09:49:35;;;;;;;14.93;13.70;;;23.80;63.50;;;;;;3621287;39;20474;-64
2021/06/03 09:52:05;;;;;;;15.10;14.30;;;23.80;63.50;;;;;;3618336;39;20574;-64
2021/06/03 09:54:33;;;;;;;14.83;13.93;;;23.80;63.50;;;;;;3621124;39;20493;-64
2021/06/03 09:57:02;;;;;;;16.00;15.20;;;23.80;63.60;;;;;;3620752;39;20497;-64
2021/06/03 09:59:31;;;;;;;16.20;15.30;;;23.80;64.40;;;;;;3610535;39;20482;-64
2021/06/03 10:02:04;;;;;;;14.77;13.80;;;23.80;63.70;;;;;;3611512;39;20494;-64
2021/06/03 10:04:36;;;;;;;15.53;14.73;;;23.80;63.80;;;;;;3610652;39;20474;-64
2021/06/03 10:07:18;;;;;;;15.20;14.40;;;23.80;63.80;;;;;;3608632;39;20491;-64
2021/06/03 10:09:51;;;;;;;15.50;14.70;;;23.80;63.90;;;;;;3608023;39;20986;-64
2021/06/03 10:12:40;;;;;;;14.73;14.00;;;23.80;63.90;;;;;;3618312;39;20483;-64
2021/06/03 10:15:33;;;;;;;15.07;14.37;;;23.80;64.00;;;;;;3617040;39;20538;-64
2021/06/03 10:18:04;;;;;;;16.13;15.20;;;23.80;64.00;;;;;;3620559;39;20490;-64
2021/06/03 10:20:37;;;;;;;15.93;15.03;;;23.80;64.10;;;;;;3618965;39;20478;-64
2021/06/03 10:23:05;;;;;;;15.40;14.60;;;23.80;64.20;;;;;;3619310;39;20486;-64
2021/06/03 10:25:33;;;;;;;16.10;15.30;;;23.80;64.30;;;;;;3621075;39;20575;-64
2021/06/03 10:28:02;;;;;;;16.27;15.20;;;23.80;64.30;;;;;;3611117;39;20495;-62
2021/06/03 10:30:30;;;;;;;15.60;14.80;;;23.80;64.40;;;;;;3620214;39;20640;-62
2021/06/03 10:33:00;;;;;;;15.57;14.77;;;23.80;64.40;;;;;;3612012;39;20475;-62
2021/06/03 10:35:30;;;;;;;15.13;14.43;;;23.80;64.50;;;;;;3610005;39;20491;-62
2021/06/03 10:37:58;;;;;;;14.40;13.70;;;23.80;64.50;;;;;;3619462;39;21323;-62
2021/06/03 10:40:28;;;;;;;14.90;14.10;;;23.80;64.60;;;;;;3619807;39;20455;-62
2021/06/03 10:42:56;;;;;;;14.47;13.67;;;23.80;64.70;;;;;;3619348;39;20478;-62
2021/06/03 10:45:25;;;;;;;14.70;13.90;;;23.80;64.70;;;;;;3619119;39;20498;-62
2021/06/03 10:47:53;;;;;;;15.00;14.10;;;23.80;64.80;;;;;;3616989;39;20491;-62
2021/06/03 10:50:24;;;;;;;14.07;13.27;;;23.80;64.80;;;;;;3620335;39;20474;-62
2021/06/03 10:52:52;;;;;;;15.20;14.40;;;23.80;64.80;;;;;;3620676;39;20482;-62
2021/06/03 10:55:30;;;;;;;15.20;14.30;;;23.80;64.90;;;;;;3620560;39;20529;-62
2021/06/03 10:57:59;;;;;;;15.50;14.53;;;23.80;65.00;;;;;;3619477;39;20599;-62
2021/06/03 11:00:31;;;;;;;15.10;14.20;;;23.80;65.00;;;;;;3619264;39;20470;-62
2021/06/03 11:03:01;;;;;;;15.37;14.57;;;23.80;64.90;;;;;;3609089;39;20497;-61
2021/06/03 11:05:32;;;;;;;15.40;14.60;;;23.80;65.00;;;;;;3617950;39;20491;-62
2021/06/03 11:08:28;;;;;;;15.13;14.17;;;23.80;65.00;;;;;;3615930;39;20237;-62
2021/06/03 11:11:16;;;;;;;13.83;13.13;;;23.80;65.00;;;;;;3620262;39;20471;-62
2021/06/03 11:14:03;;;;;;;14.33;13.63;;;23.80;64.90;;;;;;3620508;39;20479;-62
2021/06/03 11:16:45;;;;;;;14.20;13.50;;;23.80;64.80;;;;;;3621041;39;20552;-62
2021/06/03 11:19:13;;;;;;;14.43;13.63;;;23.80;64.90;;;;;;3620679;39;20569;-62
2021/06/03 11:22:08;;;;;;;14.87;13.90;;;23.80;64.80;;;;;;3618854;39;20486;-61
2021/06/03 11:24:55;;;;;;;13.30;12.70;;;23.80;64.90;;;;;;3616662;39;20481;-61
2021/06/03 11:27:36;;;;;;;13.90;12.90;;;23.80;64.90;;;;;;3619517;39;20485;-62
2021/06/03 11:30:10;;;;;;;13.97;13.27;;;23.80;64.90;;;;;;3619717;39;21087;-61
2021/06/03 11:32:42;;;;;;;13.43;12.83;;;23.80;64.80;;;;;;3620919;39;20482;-62
2021/06/03 11:35:12;;;;;;;13.50;12.77;;;23.80;64.90;;;;;;3621211;39;20972;-61
2021/06/03 11:37:47;;;;;;;13.40;12.40;;;23.80;65.00;;;;;;3619084;39;20483;-62
2021/06/03 11:40:21;;;;;;;13.77;13.03;;;23.80;65.00;;;;;;3620352;39;20475;-62
2021/06/03 11:42:49;;;;;;;13.27;12.60;;;23.80;65.10;;;;;;3620323;39;20981;-62
2021/06/03 11:45:44;;;;;;;14.77;13.87;;;23.80;65.00;;;;;;3619722;39;20565;-61
2021/06/03 11:48:22;;;;;;;15.00;14.20;;;23.80;65.10;;;;;;3619705;39;20882;-62
2021/06/03 11:50:56;;;;;;;14.20;13.20;;;23.80;64.90;;;;;;3618992;39;20481;-61
2021/06/03 11:53:25;;;;;;;13.83;13.20;;;23.80;64.90;;;;;;3617754;39;20484;-62
2021/06/03 11:55:54;;;;;;;14.53;13.77;;;23.80;65.00;;;;;;3617264;39;20474;-60
2021/06/03 11:58:30;;;;;;;15.53;14.50;;;23.80;64.90;;;;;;3618901;39;20501;-61
2021/06/03 12:01:02;;;;;;;14.70;13.90;;;23.80;64.90;;;;;;3618244;39;20917;-61
2021/06/03 12:03:35;;;;;;;14.20;13.50;;;23.80;64.90;;;;;;3617264;39;20470;-62
2021/06/03 12:06:05;;;;;;;13.90;13.20;;;23.80;64.80;;;;;;3618730;39;20475;-62
2021/06/03 12:08:34;;;;;;;13.70;13.10;;;23.80;64.80;;;;;;3619944;39;20475;-61
2021/06/03 12:11:02;;;;;;;14.67;13.80;;;23.80;64.80;;;;;;3618590;39;20483;-62
2021/06/03 12:13:30;;;;;;;12.83;12.13;;;23.80;64.80;;;;;;3617571;39;20495;-62
2021/06/03 12:15:58;;;;;;;14.20;13.50;;;23.80;64.80;;;;;;3619741;39;20500;-62
2021/06/03 12:18:32;;;;;;;14.33;13.57;;;23.80;64.80;;;;;;3620858;39;20470;-62
2021/06/03 12:20:59;;;;;;;13.30;12.60;;;23.80;64.80;;;;;;3619561;39;20594;-62
2021/06/03 12:23:26;;;;;;;14.87;14.07;;;23.80;64.80;;;;;;3621091;39;20482;-62
2021/06/03 12:25:52;;;;;;;14.40;13.60;;;23.80;64.80;;;;;;3610936;39;20724;-62
2021/06/03 12:28:19;;;;;;;14.17;13.47;;;23.80;64.80;;;;;;3620067;39;20866;-62
2021/06/03 12:30:45;;;;;;;13.40;12.80;;;23.80;64.80;;;;;;3619883;39;20502;-61
2021/06/03 12:33:15;;;;;;;14.27;13.37;;;23.80;64.90;;;;;;3620901;39;20494;-62
2021/06/03 12:35:44;;;;;;;14.07;13.37;;;23.80;64.80;;;;;;3618875;39;20512;-62
2021/06/03 12:38:24;;;;;;;14.10;13.30;;;23.80;64.90;;;;;;3621410;39;20479;-62
2021/06/03 12:40:51;;;;;;;15.67;14.57;;;23.80;64.90;;;;;;3619704;39;20801;-61
2021/06/03 12:43:18;;;;;;;14.13;13.43;;;23.80;64.90;;;;;;3619459;39;20495;-62
2021/06/03 12:45:47;;;;;;;15.00;14.00;;;23.80;64.90;;;;;;3620440;39;20856;-62